createdAt,value
2019-01-17T00:01:57.925Z,38.30
2019-01-17T00:04:28.382Z,41.47
2019-01-17T00:07:01.174Z,41.37
2019-01-17T00:09:37.028Z,39.53
2019-01-17T00:12:07.276Z,44.67
2019-01-17T00:14:49.549Z,38.93
2019-01-17T00:17:29.075Z,42.97
2019-01-17T00:20:08.280Z,41.53
2019-01-17T00:22:38.629Z,36.03
2019-01-17T00:25:26.323Z,46.47
2019-01-17T00:27:59.771Z,44.47
2019-01-17T00:30:38.895Z,47.33
2019-01-17T00:33:16.183Z,41.63
2019-01-17T00:35:52.378Z,42.10
2019-01-17T00:38:25.631Z,47.93
2019-01-17T00:41:04.838Z,46.07
2019-01-17T00:43:45.393Z,40.93
2019-01-17T00:46:27.593Z,48.40
2019-01-17T00:49:03.760Z,44.53
2019-01-17T00:51:50.149Z,48.40
2019-01-17T00:54:20.291Z,47.63
2019-01-17T00:56:59.238Z,52.13
2019-01-17T00:59:29.370Z,50.53
2019-01-17T01:02:05.495Z,52.57
2019-01-17T01:04:41.808Z,52.07
2019-01-17T01:07:24.140Z,49.67
2019-01-17T01:09:54.431Z,54.70
2019-01-17T01:12:27.571Z,54.80
2019-01-17T01:15:12.649Z,48.33
2019-01-17T01:17:42.938Z,54.60
2019-01-17T01:20:29.581Z,58.90
2019-01-17T01:22:59.842Z,51.93
2019-01-17T01:25:42.205Z,52.03
2019-01-17T01:28:18.115Z,52.13
2019-01-17T01:31:04.475Z,45.47
2019-01-17T01:33:40.793Z,48.73
2019-01-17T01:36:10.995Z,51.57
2019-01-17T01:38:57.495Z,58.83
2019-01-17T01:41:28.013Z,42.30
2019-01-17T01:44:14.845Z,52.00
2019-01-17T01:46:45.263Z,44.47
2019-01-17T01:49:31.251Z,41.00
2019-01-17T01:52:10.620Z,45.73
2019-01-17T01:54:39.257Z,54.93
2019-01-17T01:57:09.619Z,42.10
2019-01-17T01:59:38.261Z,46.57
2019-01-17T02:02:06.835Z,49.50
2019-01-17T02:04:35.483Z,44.87
2019-01-17T02:07:04.073Z,47.27
2019-01-17T02:09:32.689Z,44.37
2019-01-17T02:12:01.456Z,42.10
2019-01-17T02:14:31.003Z,45.70
2019-01-17T02:16:59.832Z,49.93
2019-01-17T02:19:31.127Z,51.33
2019-01-17T02:21:59.813Z,46.07
2019-01-17T02:24:29.487Z,51.53
2019-01-17T02:26:58.029Z,51.60
2019-01-17T02:29:28.668Z,52.50
2019-01-17T02:31:57.179Z,49.23
2019-01-17T02:34:25.763Z,52.23
2019-01-17T02:36:54.383Z,48.60
2019-01-17T02:39:22.837Z,52.73
2019-01-17T02:41:51.493Z,48.03
2019-01-17T02:44:20.136Z,51.90
2019-01-17T02:46:48.754Z,53.00
2019-01-17T02:49:18.505Z,48.70
2019-01-17T02:51:47.002Z,50.73
2019-01-17T02:54:15.543Z,49.47
2019-01-17T02:56:44.161Z,53.83
2019-01-17T02:59:12.654Z,55.73
2019-01-17T03:01:41.236Z,56.17
2019-01-17T03:04:09.835Z,52.67
2019-01-17T03:06:38.555Z,51.07
2019-01-17T03:09:08.102Z,57.77
2019-01-17T03:11:36.623Z,51.87
2019-01-17T03:14:05.162Z,51.97
2019-01-17T03:16:33.645Z,58.30
2019-01-17T03:19:02.300Z,50.23
2019-01-17T03:21:30.890Z,53.53
2019-01-17T03:24:01.054Z,56.57
2019-01-17T03:26:32.147Z,62.43
2019-01-17T03:29:00.781Z,57.60
2019-01-17T03:31:29.195Z,46.20
2019-01-17T03:33:57.766Z,57.17
2019-01-17T03:36:26.438Z,50.13
2019-01-17T03:38:55.136Z,54.23
2019-01-17T03:41:23.824Z,61.50
2019-01-17T03:43:52.753Z,57.63
2019-01-17T03:46:21.354Z,59.50
2019-01-17T03:48:53.112Z,60.53
2019-01-17T03:51:24.142Z,50.90
2019-01-17T03:53:52.904Z,51.93
2019-01-17T03:56:22.061Z,50.03
2019-01-17T03:58:51.050Z,55.87
2019-01-17T04:01:19.570Z,58.97
2019-01-17T04:03:48.049Z,53.10
2019-01-17T04:06:16.636Z,52.40
2019-01-17T04:08:45.191Z,57.20
2019-01-17T04:11:13.716Z,50.43
2019-01-17T04:13:42.242Z,53.07
2019-01-17T04:16:10.757Z,50.17
2019-01-17T04:18:39.466Z,56.43
2019-01-17T04:21:08.251Z,53.10
2019-01-17T04:23:36.925Z,53.60
2019-01-17T04:26:05.483Z,52.97
2019-01-17T04:28:34.007Z,45.30
2019-01-17T04:31:02.620Z,46.87
2019-01-17T04:33:31.405Z,50.83
2019-01-17T04:36:00.069Z,47.10
2019-01-17T04:38:28.735Z,46.50
2019-01-17T04:40:57.344Z,44.83
2019-01-17T04:43:25.849Z,51.17
2019-01-17T04:45:54.384Z,46.07
2019-01-17T04:48:22.863Z,51.23
2019-01-17T04:50:51.354Z,41.93
2019-01-17T04:53:20.017Z,45.37
2019-01-17T04:55:48.628Z,43.70
2019-01-17T04:58:17.061Z,38.63
2019-01-17T05:00:45.589Z,42.00
2019-01-17T05:03:14.182Z,41.13
2019-01-17T05:05:42.960Z,43.00
2019-01-17T05:08:11.524Z,50.50
2019-01-17T05:10:40.005Z,33.13
2019-01-17T05:13:08.560Z,41.97
2019-01-17T05:15:37.094Z,41.13
2019-01-17T05:18:05.636Z,34.87
2019-01-17T05:20:34.263Z,36.13
2019-01-17T05:23:02.874Z,32.67
2019-01-17T05:25:31.543Z,38.30
2019-01-17T05:28:00.274Z,39.73
2019-01-17T05:30:39.410Z,36.33
2019-01-17T05:33:10.904Z,35.43
2019-01-17T05:35:41.149Z,36.30
2019-01-17T05:38:09.933Z,33.10
2019-01-17T05:40:38.759Z,34.73
2019-01-17T05:43:09.356Z,30.13
2019-01-17T05:45:38.052Z,28.90
2019-01-17T05:48:06.565Z,33.53
2019-01-17T05:50:35.120Z,31.87
2019-01-17T05:53:04.153Z,38.53
2019-01-17T05:55:34.409Z,32.03
2019-01-17T05:58:03.043Z,26.27
2019-01-17T06:00:34.265Z,32.10
2019-01-17T06:03:22.406Z,28.47
2019-01-17T06:05:54.550Z,29.50
2019-01-17T06:08:29.826Z,32.13
2019-01-17T06:11:02.314Z,27.77
2019-01-17T06:13:34.138Z,25.77
2019-01-17T06:16:05.288Z,26.97
2019-01-17T06:18:52.300Z,26.30
2019-01-17T06:21:30.734Z,30.90
2019-01-17T06:24:03.794Z,25.90
2019-01-17T06:26:34.126Z,27.30
2019-01-17T06:29:10.180Z,23.73
2019-01-17T06:31:46.368Z,27.03
2019-01-17T06:34:22.950Z,22.90
2019-01-17T06:36:51.438Z,28.13
2019-01-17T06:39:23.370Z,22.60
2019-01-17T06:41:52.971Z,25.70
2019-01-17T06:44:24.362Z,28.13
2019-01-17T06:46:56.651Z,25.20
2019-01-17T06:53:09.134Z,26.87
2019-01-17T06:55:56.036Z,24.50
2019-01-17T06:58:25.412Z,27.33
2019-01-17T07:00:55.187Z,26.37
2019-01-17T07:03:23.799Z,30.53
2019-01-17T07:06:12.806Z,23.23
2019-01-17T07:08:56.867Z,26.00
2019-01-17T07:15:07.844Z,26.20
2019-01-17T07:20:49.213Z,22.47
2019-01-17T07:26:54.255Z,27.47
2019-01-17T07:29:27.608Z,23.57
2019-01-17T07:32:06.845Z,27.83
2019-01-17T07:34:46.413Z,23.13
2019-01-17T07:37:22.650Z,20.27
2019-01-17T07:39:59.905Z,22.67
2019-01-17T07:42:43.688Z,21.93
2019-01-17T07:45:30.949Z,21.90
2019-01-17T07:48:04.354Z,18.23
2019-01-17T07:50:35.075Z,21.87
2019-01-17T07:53:15.877Z,17.03
2019-01-17T07:55:59.796Z,23.20
2019-01-17T08:00:09.345Z,19.13
2019-01-17T08:01:55.588Z,19.23
2019-01-17T08:04:37.258Z,19.63
2019-01-17T08:07:33.675Z,20.53
2019-01-17T08:10:07.887Z,15.67
2019-01-17T08:12:36.734Z,20.83
2019-01-17T08:15:26.056Z,16.90
2019-01-17T08:18:00.451Z,15.80
2019-01-17T08:20:46.012Z,16.33
2019-01-17T08:23:21.047Z,16.77
2019-01-17T08:26:00.977Z,15.30
2019-01-17T08:28:33.822Z,14.83
2019-01-17T08:31:08.546Z,15.07
2019-01-17T08:33:40.979Z,15.30
2019-01-17T08:36:18.893Z,16.40
2019-01-17T08:38:52.499Z,14.67
2019-01-17T08:41:39.845Z,16.83
2019-01-17T08:44:24.511Z,16.73
2019-01-17T08:47:03.306Z,16.73
2019-01-17T08:49:35.147Z,16.43
2019-01-17T08:55:19.567Z,16.37
2019-01-17T08:57:59.649Z,15.80
2019-01-17T09:00:32.362Z,15.97
2019-01-17T09:03:05.382Z,14.43
2019-01-17T09:05:34.229Z,16.70
2019-01-17T09:08:07.337Z,14.30
2019-01-17T09:10:41.811Z,18.83
2019-01-17T09:13:13.234Z,15.53
2019-01-17T09:15:48.763Z,18.73
2019-01-17T09:18:15.702Z,16.33
2019-01-17T09:20:47.462Z,17.87
2019-01-17T09:23:16.335Z,14.60
2019-01-17T09:25:53.048Z,16.80
2019-01-17T09:28:23.812Z,14.47
2019-01-17T09:31:06.595Z,15.53
2019-01-17T09:33:34.285Z,19.87
2019-01-17T09:36:11.579Z,19.37
2019-01-17T09:38:49.165Z,16.77
2019-01-17T09:41:25.927Z,17.63
2019-01-17T09:44:07.825Z,15.30
2019-01-17T09:46:44.631Z,16.53
2019-01-17T09:49:16.958Z,22.10
2019-01-17T09:51:54.289Z,22.77
2019-01-17T09:54:27.251Z,17.17
2019-01-17T09:57:04.438Z,17.83
2019-01-17T09:59:41.610Z,16.00
2019-01-17T10:02:20.481Z,18.63
2019-01-17T10:04:54.925Z,16.37
2019-01-17T10:07:23.464Z,14.30
2019-01-17T10:09:58.804Z,20.40
2019-01-17T10:12:30.888Z,17.23
2019-01-17T10:15:03.959Z,17.93
2019-01-17T10:17:34.169Z,16.83
2019-01-17T10:20:16.473Z,20.43
2019-01-17T10:22:59.293Z,18.13
2019-01-17T10:25:36.508Z,18.87
2019-01-17T10:28:38.069Z,18.13
2019-01-17T10:31:35.177Z,17.90
2019-01-17T10:37:31.147Z,19.73
2019-01-17T10:40:36.982Z,16.93
2019-01-17T10:47:12.863Z,17.43
2019-01-17T10:53:34.498Z,20.30
2019-01-17T11:00:02.317Z,16.63
2019-01-17T11:06:47.826Z,18.20
2019-01-17T11:09:49.092Z,16.93
2019-01-17T11:12:38.965Z,20.67
2019-01-17T11:19:26.420Z,17.77
2019-01-17T11:22:21.766Z,20.37
2019-01-17T11:25:03.709Z,20.03
2019-01-17T11:28:04.908Z,15.83
2019-01-17T11:31:04.061Z,16.97
2019-01-17T11:33:39.386Z,20.07
2019-01-17T11:36:19.725Z,18.57
2019-01-17T11:39:26.789Z,16.90
2019-01-17T11:42:16.279Z,18.47
2019-01-17T11:45:06.491Z,20.33
2019-01-17T11:47:51.995Z,16.47
2019-01-17T11:50:53.983Z,17.97
2019-01-17T11:53:37.962Z,14.53
2019-01-17T11:56:40.928Z,17.70
2019-01-17T11:59:30.380Z,18.53
2019-01-17T12:02:14.197Z,18.47
2019-01-17T12:05:12.170Z,17.90
2019-01-17T12:07:54.878Z,22.13
2019-01-17T12:10:19.197Z,18.57
2019-01-17T12:12:51.034Z,19.33
2019-01-17T12:15:23.501Z,16.17
2019-01-17T12:17:56.217Z,20.63
2019-01-17T12:20:41.526Z,16.27
2019-01-17T12:23:28.088Z,16.83
2019-01-17T12:29:21.124Z,19.83
2019-01-17T12:32:00.107Z,19.57
2019-01-17T12:34:48.196Z,18.03
2019-01-17T12:38:03.624Z,17.17
2019-01-17T12:43:14.542Z,22.00
2019-01-17T12:46:00.007Z,19.30
2019-01-17T12:48:30.209Z,16.13
2019-01-17T12:51:18.754Z,15.73
2019-01-17T12:53:49.281Z,17.50
2019-01-17T12:56:25.549Z,19.93
2019-01-17T12:59:15.114Z,18.77
2019-01-17T13:01:52.934Z,20.87
2019-01-17T13:04:33.211Z,15.00
2019-01-17T13:07:01.015Z,17.77
2019-01-17T13:09:40.759Z,20.90
2019-01-17T13:12:31.938Z,19.90
2019-01-17T13:15:05.564Z,22.40
2019-01-17T13:17:46.922Z,20.10
2019-01-17T13:20:18.602Z,21.27
2019-01-17T13:22:50.051Z,20.53
2019-01-17T13:25:43.978Z,19.03
2019-01-17T13:28:15.497Z,20.13
2019-01-17T13:30:50.053Z,21.67
2019-01-17T13:33:28.553Z,21.87
2019-01-17T13:36:00.730Z,20.27
2019-01-17T13:38:42.864Z,21.03
2019-01-17T13:44:18.450Z,22.17
2019-01-17T13:46:54.250Z,23.57
2019-01-17T13:49:34.187Z,26.93
2019-01-17T13:52:09.228Z,21.97
2019-01-17T13:54:41.946Z,20.20
2019-01-17T13:57:25.570Z,23.60
2019-01-17T13:59:58.212Z,21.53
2019-01-17T14:02:34.419Z,24.53
2019-01-17T14:05:24.719Z,22.10
2019-01-17T14:07:56.572Z,23.07
2019-01-17T14:10:29.489Z,28.23
2019-01-17T14:13:01.124Z,28.47
2019-01-17T14:15:30.930Z,25.77
2019-01-17T14:18:12.084Z,26.77
2019-01-17T14:20:48.122Z,25.67
2019-01-17T14:23:23.858Z,26.07
2019-01-17T14:25:54.348Z,24.17
2019-01-17T14:28:31.943Z,27.23
2019-01-17T14:31:14.168Z,24.53
2019-01-17T14:37:04.290Z,27.70
2019-01-17T14:40:15.951Z,25.07
2019-01-17T14:54:54.784Z,30.03
2019-01-17T15:06:53.246Z,21.43
2019-01-17T15:09:37.816Z,27.03
2019-01-17T15:12:14.471Z,25.97
2019-01-17T15:17:44.049Z,24.50
2019-01-17T15:18:02.186Z,22.83
2019-01-17T15:20:43.730Z,24.97
2019-01-17T15:23:14.036Z,26.57
2019-01-17T15:31:31.414Z,24.67
2019-01-17T15:34:15.552Z,25.70
2019-01-17T15:37:10.829Z,26.30
2019-01-17T15:39:45.196Z,30.37
2019-01-17T15:42:27.220Z,27.67
2019-01-17T15:45:14.116Z,23.03
2019-01-17T15:51:23.179Z,28.80
2019-01-17T15:53:52.564Z,24.80
2019-01-17T15:56:18.936Z,30.10
2019-01-17T16:00:14.362Z,27.53
2019-01-17T16:04:42.854Z,30.53
2019-01-17T16:07:12.809Z,33.90
2019-01-17T16:09:41.559Z,29.90
2019-01-17T16:12:10.231Z,31.23
2019-01-17T16:14:38.962Z,29.67
2019-01-17T16:17:12.845Z,27.03
2019-01-17T16:19:41.694Z,29.40
2019-01-17T16:22:17.008Z,26.97
2019-01-17T16:24:48.274Z,28.57
2019-01-17T16:27:20.888Z,27.60
2019-01-17T16:29:57.934Z,25.40
2019-01-17T16:32:27.152Z,30.57
2019-01-17T16:35:04.616Z,27.23
2019-01-17T16:37:39.686Z,26.50
2019-01-17T16:40:18.551Z,26.53
2019-01-17T16:42:42.544Z,28.30
2019-01-17T16:45:19.147Z,29.70
2019-01-17T16:47:47.986Z,29.97
2019-01-17T16:50:19.970Z,28.47
2019-01-17T16:52:49.904Z,34.63
2019-01-17T16:55:20.386Z,30.67
2019-01-17T16:57:52.298Z,38.27
2019-01-17T17:00:25.834Z,32.80
2019-01-17T17:02:54.558Z,31.23
2019-01-17T17:05:30.429Z,32.30
2019-01-17T17:08:02.289Z,31.07
2019-01-17T17:10:30.929Z,33.83
2019-01-17T17:15:58.667Z,31.60
2019-01-17T17:18:37.985Z,34.30
2019-01-17T17:21:10.827Z,30.10
2019-01-17T17:23:54.735Z,29.03
2019-01-17T17:26:33.743Z,27.67
2019-01-17T17:28:58.438Z,28.20
2019-01-17T17:31:36.220Z,29.27
2019-01-17T17:37:05.653Z,30.90
2019-01-17T17:39:36.005Z,27.77
2019-01-17T17:42:13.189Z,34.63
2019-01-17T17:44:49.626Z,29.27
2019-01-17T17:47:34.183Z,34.03
2019-01-17T17:50:04.535Z,31.57
2019-01-17T17:52:35.751Z,29.37
2019-01-17T17:55:11.137Z,30.03
2019-01-17T17:57:54.900Z,30.77
2019-01-17T18:00:32.900Z,33.07
2019-01-17T18:03:18.549Z,30.13
2019-01-17T18:06:36.327Z,28.93
2019-01-17T18:12:57.851Z,34.67
2019-01-17T18:15:19.354Z,33.03
2019-01-17T18:18:23.023Z,31.20
2019-01-17T18:20:38.426Z,27.70
2019-01-17T18:23:12.409Z,27.70
2019-01-17T18:25:45.422Z,29.97
2019-01-17T18:28:34.414Z,28.20
2019-01-17T18:31:20.585Z,27.13
2019-01-17T18:34:02.627Z,30.83
2019-01-17T18:36:43.086Z,29.50
2019-01-17T18:39:15.523Z,35.20
2019-01-17T18:41:54.111Z,30.23
2019-01-17T18:44:28.383Z,28.77
2019-01-17T18:47:01.811Z,29.70
2019-01-17T18:49:30.351Z,28.67
2019-01-17T18:52:03.306Z,26.60
2019-01-17T18:54:33.154Z,26.17
2019-01-17T18:57:07.254Z,30.77
2019-01-17T18:59:36.944Z,25.27
2019-01-17T19:02:08.946Z,24.93
2019-01-17T19:04:37.615Z,32.67
2019-01-17T19:07:08.713Z,27.40
2019-01-17T19:10:02.888Z,31.47
2019-01-17T19:12:16.486Z,31.00
2019-01-17T19:14:51.106Z,26.97
2019-01-17T19:17:26.827Z,35.13
2019-01-17T19:19:59.871Z,32.43
2019-01-17T19:22:36.125Z,30.27
2019-01-17T19:25:46.779Z,32.77
2019-01-17T19:28:26.947Z,30.90
2019-01-17T19:30:57.616Z,31.63
2019-01-17T19:33:35.592Z,29.87
2019-01-17T19:36:09.246Z,30.33
2019-01-17T19:38:37.971Z,32.20
2019-01-17T19:41:09.425Z,34.23
2019-01-17T19:43:37.942Z,31.73
2019-01-17T19:46:08.263Z,28.90
2019-01-17T19:48:37.413Z,32.17
2019-01-17T19:51:08.908Z,29.77
2019-01-17T19:53:39.162Z,27.43
2019-01-17T19:56:14.544Z,30.60
2019-01-17T20:02:16.814Z,31.63
2019-01-17T20:05:06.537Z,27.50
2019-01-17T20:07:34.111Z,25.40
2019-01-17T20:10:07.393Z,26.37
2019-01-17T20:12:34.572Z,26.53
2019-01-17T20:15:09.335Z,32.77
2019-01-17T20:17:37.949Z,29.60
2019-01-17T20:20:11.143Z,30.47
2019-01-17T20:22:40.924Z,30.23
2019-01-17T20:25:10.837Z,27.43
2019-01-17T20:27:39.558Z,24.50
2019-01-17T20:30:11.585Z,25.17
2019-01-17T20:32:40.237Z,21.97
2019-01-17T20:35:11.309Z,29.00
2019-01-17T20:37:46.658Z,29.73
2019-01-17T20:40:18.468Z,32.03
2019-01-17T20:42:47.621Z,27.97
2019-01-17T20:45:16.452Z,26.73
2019-01-17T20:47:46.259Z,23.27
2019-01-17T20:50:18.871Z,24.40
2019-01-17T20:52:47.484Z,23.63
2019-01-17T20:55:18.119Z,25.07
2019-01-17T20:57:48.252Z,27.17
2019-01-17T21:00:25.436Z,26.17
2019-01-17T21:02:55.186Z,24.43
2019-01-17T21:05:27.256Z,26.03
2019-01-17T21:07:58.773Z,24.97
2019-01-17T21:10:28.430Z,24.77
2019-01-17T21:12:58.635Z,28.57
2019-01-17T21:15:27.117Z,31.53
2019-01-17T21:17:57.275Z,32.13
2019-01-17T21:20:25.959Z,32.20
2019-01-17T21:22:54.515Z,33.07
2019-01-17T21:25:23.550Z,36.87
2019-01-17T21:27:52.866Z,37.00
2019-01-17T21:30:25.064Z,35.27
2019-01-17T21:32:53.670Z,32.33
2019-01-17T21:35:31.397Z,31.57
2019-01-17T21:38:00.101Z,34.40
2019-01-17T21:40:30.464Z,36.93
2019-01-17T21:43:00.712Z,33.80
2019-01-17T21:45:32.899Z,39.77
2019-01-17T21:48:01.721Z,34.53
2019-01-17T21:50:35.292Z,37.57
2019-01-17T21:53:03.854Z,37.53
2019-01-17T21:55:32.481Z,38.23
2019-01-17T21:58:01.029Z,38.20
2019-01-17T22:00:30.274Z,37.93
2019-01-17T22:02:58.890Z,41.07
2019-01-17T22:05:27.438Z,37.47
2019-01-17T22:07:55.886Z,32.10
2019-01-17T22:10:24.480Z,35.37
2019-01-17T22:12:53.248Z,35.97
2019-01-17T22:15:24.334Z,39.70
2019-01-17T22:17:53.704Z,40.47
2019-01-17T22:20:25.214Z,39.03
2019-01-17T22:22:58.580Z,45.13
2019-01-17T22:25:28.743Z,38.87
2019-01-17T22:27:57.380Z,39.57
2019-01-17T22:30:33.121Z,37.37
2019-01-17T22:33:06.107Z,37.80
2019-01-17T22:35:35.124Z,34.97
2019-01-17T22:38:04.870Z,33.87
2019-01-17T22:40:35.854Z,31.50
2019-01-17T22:43:04.130Z,38.67
2019-01-17T22:45:36.064Z,34.83
2019-01-17T22:48:17.854Z,38.13
2019-01-17T22:50:46.613Z,40.83
2019-01-17T22:53:22.106Z,41.80
2019-01-17T22:55:50.882Z,38.80
2019-01-17T22:58:19.895Z,40.00
2019-01-17T23:00:56.292Z,41.67
2019-01-17T23:03:30.602Z,39.73
2019-01-17T23:06:02.654Z,35.83
2019-01-17T23:08:34.450Z,37.23
2019-01-17T23:11:03.357Z,40.63
2019-01-17T23:13:31.792Z,37.23
2019-01-17T23:16:00.324Z,33.33
2019-01-17T23:18:33.930Z,31.20
2019-01-17T23:21:03.334Z,32.73
2019-01-17T23:23:32.065Z,34.03
2019-01-17T23:26:00.630Z,35.53
2019-01-17T23:28:29.273Z,39.17
2019-01-17T23:30:57.839Z,39.43
2019-01-17T23:33:26.360Z,35.43
2019-01-17T23:35:55.000Z,43.43
2019-01-17T23:38:27.168Z,41.95
2019-01-17T23:40:55.822Z,40.93
2019-01-17T23:43:24.731Z,40.10
2019-01-17T23:45:56.125Z,43.53
2019-01-17T23:48:24.967Z,45.13
2019-01-17T23:50:53.678Z,41.47
2019-01-17T23:53:22.188Z,38.80
2019-01-17T23:55:50.678Z,39.97
2019-01-17T23:58:19.243Z,41.00
